sensor_id;sensor_type;location;lat;lon;timestamp;P1;durP1;ratioP1;P2;durP2;ratioP2
75696;SDS011;64312;44.738;20.612;2023-01-28T00:00:03;27.88;;;13.35;;
75696;SDS011;64312;44.738;20.612;2023-01-28T00:02:34;25.25;;;11.63;;
75696;SDS011;64312;44.738;20.612;2023-01-28T00:05:00;28.80;;;12.27;;
75696;SDS011;64312;44.738;20.612;2023-01-28T00:07:26;28.20;;;12.95;;
75696;SDS011;64312;44.738;20.612;2023-01-28T00:09:52;25.65;;;12.55;;
75696;SDS011;64312;44.738;20.612;2023-01-28T00:12:18;25.00;;;12.55;;
75696;SDS011;64312;44.738;20.612;2023-01-28T00:14:43;30.98;;;12.52;;
75696;SDS011;64312;44.738;20.612;2023-01-28T00:17:11;26.63;;;12.13;;
75696;SDS011;64312;44.738;20.612;2023-01-28T00:19:36;25.58;;;11.75;;
75696;SDS011;64312;44.738;20.612;2023-01-28T00:22:02;28.00;;;13.93;;
75696;SDS011;64312;44.738;20.612;2023-01-28T00:24:28;29.33;;;13.32;;
75696;SDS011;64312;44.738;20.612;2023-01-28T00:26:54;30.73;;;12.75;;
75696;SDS011;64312;44.738;20.612;2023-01-28T00:29:20;26.08;;;12.70;;
75696;SDS011;64312;44.738;20.612;2023-01-28T00:31:45;26.40;;;12.30;;
75696;SDS011;64312;44.738;20.612;2023-01-28T00:34:11;27.27;;;13.00;;
75696;SDS011;64312;44.738;20.612;2023-01-28T00:36:39;31.77;;;13.10;;
75696;SDS011;64312;44.738;20.612;2023-01-28T00:39:06;27.50;;;12.00;;
75696;SDS011;64312;44.738;20.612;2023-01-28T00:41:40;27.63;;;12.50;;
75696;SDS011;64312;44.738;20.612;2023-01-28T00:44:07;31.52;;;14.23;;
75696;SDS011;64312;44.738;20.612;2023-01-28T00:46:34;29.80;;;13.27;;
75696;SDS011;64312;44.738;20.612;2023-01-28T00:49:00;26.45;;;12.35;;
75696;SDS011;64312;44.738;20.612;2023-01-28T00:51:26;25.88;;;12.95;;
75696;SDS011;64312;44.738;20.612;2023-01-28T00:53:51;28.92;;;13.43;;
75696;SDS011;64312;44.738;20.612;2023-01-28T00:56:18;30.73;;;14.52;;
75696;SDS011;64312;44.738;20.612;2023-01-28T00:58:44;25.65;;;12.73;;
75696;SDS011;64312;44.738;20.612;2023-01-28T01:01:20;26.58;;;11.50;;
75696;SDS011;64312;44.738;20.612;2023-01-28T01:03:48;25.88;;;12.75;;
75696;SDS011;64312;44.738;20.612;2023-01-28T01:06:32;30.45;;;14.52;;
75696;SDS011;64312;44.738;20.612;2023-01-28T01:09:03;28.08;;;12.73;;
75696;SDS011;64312;44.738;20.612;2023-01-28T01:11:30;27.42;;;14.15;;
75696;SDS011;64312;44.738;20.612;2023-01-28T01:13:56;25.73;;;12.88;;
75696;SDS011;64312;44.738;20.612;2023-01-28T01:16:24;27.92;;;12.07;;
75696;SDS011;64312;44.738;20.612;2023-01-28T01:18:52;23.25;;;12.30;;
75696;SDS011;64312;44.738;20.612;2023-01-28T01:21:19;28.52;;;13.68;;
75696;SDS011;64312;44.738;20.612;2023-01-28T01:23:47;27.70;;;11.77;;
75696;SDS011;64312;44.738;20.612;2023-01-28T01:26:13;29.13;;;13.13;;
75696;SDS011;64312;44.738;20.612;2023-01-28T01:28:39;34.85;;;15.45;;
75696;SDS011;64312;44.738;20.612;2023-01-28T01:31:15;27.48;;;14.18;;
75696;SDS011;64312;44.738;20.612;2023-01-28T01:33:44;26.33;;;12.32;;
75696;SDS011;64312;44.738;20.612;2023-01-28T01:36:12;26.45;;;12.20;;
75696;SDS011;64312;44.738;20.612;2023-01-28T01:38:39;27.98;;;13.13;;
75696;SDS011;64312;44.738;20.612;2023-01-28T01:41:07;26.58;;;12.40;;
75696;SDS011;64312;44.738;20.612;2023-01-28T01:43:51;27.65;;;12.38;;
75696;SDS011;64312;44.738;20.612;2023-01-28T01:46:28;26.30;;;12.80;;
75696;SDS011;64312;44.738;20.612;2023-01-28T01:49:29;25.13;;;12.73;;
75696;SDS011;64312;44.738;20.612;2023-01-28T01:51:59;30.00;;;14.98;;
75696;SDS011;64312;44.738;20.612;2023-01-28T01:54:28;31.20;;;13.10;;
75696;SDS011;64312;44.738;20.612;2023-01-28T01:56:56;27.90;;;11.85;;
75696;SDS011;64312;44.738;20.612;2023-01-28T01:59:24;29.02;;;11.27;;
75696;SDS011;64312;44.738;20.612;2023-01-28T02:01:53;25.33;;;10.82;;
75696;SDS011;64312;44.738;20.612;2023-01-28T02:07:18;24.98;;;11.55;;
75696;SDS011;64312;44.738;20.612;2023-01-28T02:09:44;26.52;;;13.00;;
75696;SDS011;64312;44.738;20.612;2023-01-28T02:12:11;28.67;;;11.20;;
75696;SDS011;64312;44.738;20.612;2023-01-28T02:14:51;31.60;;;12.93;;
75696;SDS011;64312;44.738;20.612;2023-01-28T02:17:21;28.98;;;12.60;;
75696;SDS011;64312;44.738;20.612;2023-01-28T02:19:55;32.78;;;13.25;;
75696;SDS011;64312;44.738;20.612;2023-01-28T02:30:27;29.05;;;13.05;;
75696;SDS011;64312;44.738;20.612;2023-01-28T02:32:59;25.73;;;12.95;;
75696;SDS011;64312;44.738;20.612;2023-01-28T02:35:36;34.88;;;14.00;;
75696;SDS011;64312;44.738;20.612;2023-01-28T02:38:08;37.65;;;14.55;;
75696;SDS011;64312;44.738;20.612;2023-01-28T02:40:37;30.00;;;13.98;;
75696;SDS011;64312;44.738;20.612;2023-01-28T02:43:44;31.73;;;13.63;;
75696;SDS011;64312;44.738;20.612;2023-01-28T02:48:59;35.20;;;14.38;;
75696;SDS011;64312;44.738;20.612;2023-01-28T02:59:22;32.83;;;14.45;;
75696;SDS011;64312;44.738;20.612;2023-01-28T03:05:26;33.90;;;13.73;;
75696;SDS011;64312;44.738;20.612;2023-01-28T03:07:52;32.60;;;14.60;;
75696;SDS011;64312;44.738;20.612;2023-01-28T03:10:20;34.85;;;13.30;;
75696;SDS011;64312;44.738;20.612;2023-01-28T03:12:48;28.00;;;12.85;;
75696;SDS011;64312;44.738;20.612;2023-01-28T03:15:45;31.27;;;14.70;;
75696;SDS011;64312;44.738;20.612;2023-01-28T03:18:32;37.78;;;14.05;;
75696;SDS011;64312;44.738;20.612;2023-01-28T03:21:24;24.23;;;13.10;;
75696;SDS011;64312;44.738;20.612;2023-01-28T03:24:29;28.40;;;13.48;;
75696;SDS011;64312;44.738;20.612;2023-01-28T03:30:16;28.35;;;13.95;;
75696;SDS011;64312;44.738;20.612;2023-01-28T03:33:10;155.57;;;51.42;;
75696;SDS011;64312;44.738;20.612;2023-01-28T03:35:55;113.05;;;45.28;;
75696;SDS011;64312;44.738;20.612;2023-01-28T03:38:40;120.93;;;71.78;;
75696;SDS011;64312;44.738;20.612;2023-01-28T03:41:10;51.63;;;29.95;;
75696;SDS011;64312;44.738;20.612;2023-01-28T03:43:37;50.15;;;22.95;;
75696;SDS011;64312;44.738;20.612;2023-01-28T03:46:03;37.33;;;22.55;;
75696;SDS011;64312;44.738;20.612;2023-01-28T03:48:31;34.33;;;18.65;;
75696;SDS011;64312;44.738;20.612;2023-01-28T03:50:59;42.17;;;19.35;;
75696;SDS011;64312;44.738;20.612;2023-01-28T03:53:26;43.95;;;20.42;;
75696;SDS011;64312;44.738;20.612;2023-01-28T03:55:54;37.75;;;19.15;;
75696;SDS011;64312;44.738;20.612;2023-01-28T03:58:23;31.23;;;13.50;;
75696;SDS011;64312;44.738;20.612;2023-01-28T04:01:11;29.85;;;13.93;;
75696;SDS011;64312;44.738;20.612;2023-01-28T04:03:37;36.00;;;15.75;;
75696;SDS011;64312;44.738;20.612;2023-01-28T04:06:10;34.05;;;14.63;;
75696;SDS011;64312;44.738;20.612;2023-01-28T04:08:58;34.88;;;15.85;;
75696;SDS011;64312;44.738;20.612;2023-01-28T04:11:43;34.88;;;14.10;;
75696;SDS011;64312;44.738;20.612;2023-01-28T04:14:12;32.30;;;13.80;;
75696;SDS011;64312;44.738;20.612;2023-01-28T04:17:01;29.83;;;13.13;;
75696;SDS011;64312;44.738;20.612;2023-01-28T04:19:27;34.08;;;14.60;;
75696;SDS011;64312;44.738;20.612;2023-01-28T04:21:55;41.92;;;16.00;;
75696;SDS011;64312;44.738;20.612;2023-01-28T04:24:22;38.88;;;16.48;;
75696;SDS011;64312;44.738;20.612;2023-01-28T04:26:48;31.88;;;14.25;;
75696;SDS011;64312;44.738;20.612;2023-01-28T04:29:14;29.98;;;12.10;;
75696;SDS011;64312;44.738;20.612;2023-01-28T04:31:40;30.77;;;13.95;;
75696;SDS011;64312;44.738;20.612;2023-01-28T04:34:24;31.85;;;14.82;;
75696;SDS011;64312;44.738;20.612;2023-01-28T04:37:06;32.50;;;13.23;;
75696;SDS011;64312;44.738;20.612;2023-01-28T04:39:49;31.02;;;13.90;;
75696;SDS011;64312;44.738;20.612;2023-01-28T04:42:19;34.42;;;14.70;;
75696;SDS011;64312;44.738;20.612;2023-01-28T04:45:05;32.20;;;13.52;;
75696;SDS011;64312;44.738;20.612;2023-01-28T04:47:50;36.58;;;16.73;;
75696;SDS011;64312;44.738;20.612;2023-01-28T04:50:43;36.40;;;15.77;;
75696;SDS011;64312;44.738;20.612;2023-01-28T04:53:31;33.15;;;14.38;;
75696;SDS011;64312;44.738;20.612;2023-01-28T04:56:04;34.03;;;13.05;;
75696;SDS011;64312;44.738;20.612;2023-01-28T04:58:32;34.83;;;15.55;;
75696;SDS011;64312;44.738;20.612;2023-01-28T05:01:02;32.97;;;14.25;;
75696;SDS011;64312;44.738;20.612;2023-01-28T05:03:28;35.78;;;15.80;;
75696;SDS011;64312;44.738;20.612;2023-01-28T05:05:54;32.58;;;13.68;;
75696;SDS011;64312;44.738;20.612;2023-01-28T05:08:40;32.03;;;12.25;;
75696;SDS011;64312;44.738;20.612;2023-01-28T05:11:07;34.95;;;14.13;;
75696;SDS011;64312;44.738;20.612;2023-01-28T05:13:32;33.55;;;13.45;;
75696;SDS011;64312;44.738;20.612;2023-01-28T05:15:58;40.65;;;17.10;;
75696;SDS011;64312;44.738;20.612;2023-01-28T05:18:24;31.45;;;14.68;;
75696;SDS011;64312;44.738;20.612;2023-01-28T05:21:10;30.95;;;13.52;;
75696;SDS011;64312;44.738;20.612;2023-01-28T05:23:37;32.10;;;14.68;;
75696;SDS011;64312;44.738;20.612;2023-01-28T05:26:03;25.90;;;14.02;;
75696;SDS011;64312;44.738;20.612;2023-01-28T05:28:29;33.50;;;15.63;;
75696;SDS011;64312;44.738;20.612;2023-01-28T05:30:56;32.22;;;15.23;;
75696;SDS011;64312;44.738;20.612;2023-01-28T05:33:22;33.22;;;16.75;;
75696;SDS011;64312;44.738;20.612;2023-01-28T05:35:48;32.80;;;15.10;;
75696;SDS011;64312;44.738;20.612;2023-01-28T05:38:15;28.73;;;14.90;;
75696;SDS011;64312;44.738;20.612;2023-01-28T05:40:41;27.27;;;14.60;;
75696;SDS011;64312;44.738;20.612;2023-01-28T05:43:06;32.65;;;14.15;;
75696;SDS011;64312;44.738;20.612;2023-01-28T05:48:14;26.63;;;12.77;;
75696;SDS011;64312;44.738;20.612;2023-01-28T05:50:59;31.55;;;15.00;;
75696;SDS011;64312;44.738;20.612;2023-01-28T05:53:32;34.97;;;17.92;;
75696;SDS011;64312;44.738;20.612;2023-01-28T05:55:58;29.90;;;14.77;;
75696;SDS011;64312;44.738;20.612;2023-01-28T05:58:23;29.25;;;15.88;;
75696;SDS011;64312;44.738;20.612;2023-01-28T06:00:53;28.38;;;14.18;;
75696;SDS011;64312;44.738;20.612;2023-01-28T06:03:24;35.63;;;14.80;;
75696;SDS011;64312;44.738;20.612;2023-01-28T06:05:50;31.80;;;14.98;;
75696;SDS011;64312;44.738;20.612;2023-01-28T06:08:15;28.90;;;15.20;;
75696;SDS011;64312;44.738;20.612;2023-01-28T06:10:41;36.72;;;17.45;;
75696;SDS011;64312;44.738;20.612;2023-01-28T06:13:07;35.97;;;16.92;;
75696;SDS011;64312;44.738;20.612;2023-01-28T06:16:02;31.73;;;16.15;;
75696;SDS011;64312;44.738;20.612;2023-01-28T06:18:37;33.38;;;16.92;;
75696;SDS011;64312;44.738;20.612;2023-01-28T06:21:03;29.83;;;14.98;;
75696;SDS011;64312;44.738;20.612;2023-01-28T06:23:29;29.85;;;14.00;;
75696;SDS011;64312;44.738;20.612;2023-01-28T06:25:55;36.33;;;17.35;;
75696;SDS011;64312;44.738;20.612;2023-01-28T06:28:22;34.20;;;14.57;;
75696;SDS011;64312;44.738;20.612;2023-01-28T06:30:49;39.70;;;16.30;;
75696;SDS011;64312;44.738;20.612;2023-01-28T06:33:16;33.50;;;16.02;;
75696;SDS011;64312;44.738;20.612;2023-01-28T06:35:42;38.53;;;16.35;;
75696;SDS011;64312;44.738;20.612;2023-01-28T06:38:09;33.22;;;15.82;;
75696;SDS011;64312;44.738;20.612;2023-01-28T06:40:35;34.63;;;15.20;;
75696;SDS011;64312;44.738;20.612;2023-01-28T06:43:01;39.13;;;15.80;;
75696;SDS011;64312;44.738;20.612;2023-01-28T06:45:26;39.53;;;15.40;;
75696;SDS011;64312;44.738;20.612;2023-01-28T06:47:52;44.97;;;19.50;;
75696;SDS011;64312;44.738;20.612;2023-01-28T06:50:18;45.20;;;19.30;;
75696;SDS011;64312;44.738;20.612;2023-01-28T06:52:43;43.72;;;17.30;;
75696;SDS011;64312;44.738;20.612;2023-01-28T06:55:09;38.08;;;19.33;;
75696;SDS011;64312;44.738;20.612;2023-01-28T06:57:38;36.03;;;16.65;;
75696;SDS011;64312;44.738;20.612;2023-01-28T07:00:08;43.65;;;20.75;;
75696;SDS011;64312;44.738;20.612;2023-01-28T07:02:35;38.38;;;18.25;;
75696;SDS011;64312;44.738;20.612;2023-01-28T07:05:02;39.50;;;17.45;;
75696;SDS011;64312;44.738;20.612;2023-01-28T07:07:28;40.17;;;17.30;;
75696;SDS011;64312;44.738;20.612;2023-01-28T07:09:54;34.08;;;16.55;;
75696;SDS011;64312;44.738;20.612;2023-01-28T07:12:20;42.15;;;19.35;;
75696;SDS011;64312;44.738;20.612;2023-01-28T07:14:45;39.88;;;17.42;;
75696;SDS011;64312;44.738;20.612;2023-01-28T07:17:11;38.72;;;17.05;;
75696;SDS011;64312;44.738;20.612;2023-01-28T07:19:36;40.63;;;16.35;;
75696;SDS011;64312;44.738;20.612;2023-01-28T07:22:02;39.20;;;16.95;;
75696;SDS011;64312;44.738;20.612;2023-01-28T07:24:28;40.45;;;16.15;;
75696;SDS011;64312;44.738;20.612;2023-01-28T07:26:55;38.92;;;17.13;;
75696;SDS011;64312;44.738;20.612;2023-01-28T07:29:21;43.70;;;19.20;;
75696;SDS011;64312;44.738;20.612;2023-01-28T07:31:47;45.00;;;20.00;;
75696;SDS011;64312;44.738;20.612;2023-01-28T07:34:12;41.20;;;19.50;;
75696;SDS011;64312;44.738;20.612;2023-01-28T07:36:38;48.55;;;20.92;;
75696;SDS011;64312;44.738;20.612;2023-01-28T07:39:04;47.65;;;20.35;;
75696;SDS011;64312;44.738;20.612;2023-01-28T07:41:29;46.28;;;20.50;;
75696;SDS011;64312;44.738;20.612;2023-01-28T07:44:02;41.47;;;19.63;;
75696;SDS011;64312;44.738;20.612;2023-01-28T07:46:29;47.53;;;21.50;;
75696;SDS011;64312;44.738;20.612;2023-01-28T07:48:54;40.10;;;18.63;;
75696;SDS011;64312;44.738;20.612;2023-01-28T07:51:20;43.50;;;19.23;;
75696;SDS011;64312;44.738;20.612;2023-01-28T07:53:45;42.85;;;20.75;;
75696;SDS011;64312;44.738;20.612;2023-01-28T07:56:11;53.85;;;21.48;;
75696;SDS011;64312;44.738;20.612;2023-01-28T07:58:37;48.47;;;21.90;;
75696;SDS011;64312;44.738;20.612;2023-01-28T08:01:03;55.47;;;22.70;;
75696;SDS011;64312;44.738;20.612;2023-01-28T08:03:29;53.47;;;23.95;;
75696;SDS011;64312;44.738;20.612;2023-01-28T08:05:55;49.97;;;22.50;;
75696;SDS011;64312;44.738;20.612;2023-01-28T08:08:21;54.53;;;22.42;;
75696;SDS011;64312;44.738;20.612;2023-01-28T08:10:48;53.20;;;23.15;;
75696;SDS011;64312;44.738;20.612;2023-01-28T08:13:15;49.42;;;22.98;;
75696;SDS011;64312;44.738;20.612;2023-01-28T08:15:41;47.47;;;22.52;;
75696;SDS011;64312;44.738;20.612;2023-01-28T08:18:08;58.63;;;23.75;;
75696;SDS011;64312;44.738;20.612;2023-01-28T08:20:37;54.28;;;21.60;;
75696;SDS011;64312;44.738;20.612;2023-01-28T08:23:12;57.70;;;23.48;;
75696;SDS011;64312;44.738;20.612;2023-01-28T08:25:40;44.17;;;20.95;;
75696;SDS011;64312;44.738;20.612;2023-01-28T08:28:05;54.65;;;22.90;;
75696;SDS011;64312;44.738;20.612;2023-01-28T08:30:32;50.50;;;21.55;;
75696;SDS011;64312;44.738;20.612;2023-01-28T08:32:58;50.08;;;23.45;;
75696;SDS011;64312;44.738;20.612;2023-01-28T08:35:25;51.30;;;24.48;;
75696;SDS011;64312;44.738;20.612;2023-01-28T08:37:52;46.92;;;21.88;;
75696;SDS011;64312;44.738;20.612;2023-01-28T08:40:18;44.13;;;22.10;;
75696;SDS011;64312;44.738;20.612;2023-01-28T08:42:51;46.88;;;22.42;;
75696;SDS011;64312;44.738;20.612;2023-01-28T08:45:18;51.67;;;24.58;;
75696;SDS011;64312;44.738;20.612;2023-01-28T08:47:56;63.03;;;26.40;;
75696;SDS011;64312;44.738;20.612;2023-01-28T08:50:25;51.45;;;23.17;;
75696;SDS011;64312;44.738;20.612;2023-01-28T08:52:55;49.05;;;21.77;;
75696;SDS011;64312;44.738;20.612;2023-01-28T08:55:22;53.17;;;25.35;;
75696;SDS011;64312;44.738;20.612;2023-01-28T08:57:48;53.05;;;22.20;;
75696;SDS011;64312;44.738;20.612;2023-01-28T09:00:14;43.25;;;20.58;;
75696;SDS011;64312;44.738;20.612;2023-01-28T09:02:39;53.03;;;22.75;;
75696;SDS011;64312;44.738;20.612;2023-01-28T09:05:05;57.83;;;24.83;;
75696;SDS011;64312;44.738;20.612;2023-01-28T09:07:33;54.83;;;25.90;;
75696;SDS011;64312;44.738;20.612;2023-01-28T09:10:00;42.60;;;21.25;;
75696;SDS011;64312;44.738;20.612;2023-01-28T09:12:25;44.50;;;21.75;;
75696;SDS011;64312;44.738;20.612;2023-01-28T09:14:51;49.53;;;24.92;;
75696;SDS011;64312;44.738;20.612;2023-01-28T09:17:18;43.42;;;21.08;;
75696;SDS011;64312;44.738;20.612;2023-01-28T09:19:44;45.78;;;23.95;;
75696;SDS011;64312;44.738;20.612;2023-01-28T09:22:10;43.70;;;21.25;;
75696;SDS011;64312;44.738;20.612;2023-01-28T09:24:36;41.88;;;19.40;;
75696;SDS011;64312;44.738;20.612;2023-01-28T09:27:01;41.08;;;20.58;;
75696;SDS011;64312;44.738;20.612;2023-01-28T09:29:27;35.53;;;17.88;;
75696;SDS011;64312;44.738;20.612;2023-01-28T09:31:53;37.47;;;17.75;;
75696;SDS011;64312;44.738;20.612;2023-01-28T09:34:19;37.60;;;20.52;;
75696;SDS011;64312;44.738;20.612;2023-01-28T09:36:45;40.33;;;18.95;;
75696;SDS011;64312;44.738;20.612;2023-01-28T09:39:10;41.58;;;20.27;;
75696;SDS011;64312;44.738;20.612;2023-01-28T09:44:29;47.60;;;21.55;;
75696;SDS011;64312;44.738;20.612;2023-01-28T09:46:59;41.33;;;21.25;;
75696;SDS011;64312;44.738;20.612;2023-01-28T09:49:39;44.33;;;21.95;;
75696;SDS011;64312;44.738;20.612;2023-01-28T09:52:13;45.63;;;22.35;;
75696;SDS011;64312;44.738;20.612;2023-01-28T09:57:36;49.25;;;22.88;;
75696;SDS011;64312;44.738;20.612;2023-01-28T10:00:08;58.75;;;25.25;;
75696;SDS011;64312;44.738;20.612;2023-01-28T10:11:16;47.88;;;21.10;;
75696;SDS011;64312;44.738;20.612;2023-01-28T10:13:46;42.35;;;20.33;;
75696;SDS011;64312;44.738;20.612;2023-01-28T10:21:56;52.58;;;23.60;;
75696;SDS011;64312;44.738;20.612;2023-01-28T10:24:38;44.30;;;21.25;;
75696;SDS011;64312;44.738;20.612;2023-01-28T10:27:09;48.15;;;21.08;;
75696;SDS011;64312;44.738;20.612;2023-01-28T10:29:43;44.85;;;19.55;;
75696;SDS011;64312;44.738;20.612;2023-01-28T10:35:03;50.17;;;23.55;;
75696;SDS011;64312;44.738;20.612;2023-01-28T10:37:30;44.08;;;20.08;;
75696;SDS011;64312;44.738;20.612;2023-01-28T10:39:59;48.38;;;21.67;;
75696;SDS011;64312;44.738;20.612;2023-01-28T10:44:59;47.67;;;21.20;;
75696;SDS011;64312;44.738;20.612;2023-01-28T10:47:32;40.92;;;19.63;;
75696;SDS011;64312;44.738;20.612;2023-01-28T10:50:04;37.17;;;18.95;;
75696;SDS011;64312;44.738;20.612;2023-01-28T10:52:34;47.35;;;20.08;;
75696;SDS011;64312;44.738;20.612;2023-01-28T10:55:04;46.72;;;20.85;;
75696;SDS011;64312;44.738;20.612;2023-01-28T10:57:33;40.28;;;19.90;;
75696;SDS011;64312;44.738;20.612;2023-01-28T11:00:21;42.17;;;20.45;;
75696;SDS011;64312;44.738;20.612;2023-01-28T11:02:48;39.70;;;18.80;;
75696;SDS011;64312;44.738;20.612;2023-01-28T11:05:18;49.83;;;23.38;;
75696;SDS011;64312;44.738;20.612;2023-01-28T11:08:12;42.70;;;19.38;;
75696;SDS011;64312;44.738;20.612;2023-01-28T11:13:12;47.35;;;21.90;;
75696;SDS011;64312;44.738;20.612;2023-01-28T11:18:45;51.80;;;22.35;;
75696;SDS011;64312;44.738;20.612;2023-01-28T11:21:16;47.92;;;24.33;;
75696;SDS011;64312;44.738;20.612;2023-01-28T11:23:49;68.65;;;28.95;;
75696;SDS011;64312;44.738;20.612;2023-01-28T11:26:21;71.78;;;27.85;;
75696;SDS011;64312;44.738;20.612;2023-01-28T11:28:50;61.08;;;24.45;;
75696;SDS011;64312;44.738;20.612;2023-01-28T11:31:17;59.28;;;25.98;;
75696;SDS011;64312;44.738;20.612;2023-01-28T11:33:48;66.00;;;31.85;;
75696;SDS011;64312;44.738;20.612;2023-01-28T11:36:18;59.00;;;25.63;;
75696;SDS011;64312;44.738;20.612;2023-01-28T11:43:54;57.53;;;24.30;;
75696;SDS011;64312;44.738;20.612;2023-01-28T11:46:33;71.20;;;30.67;;
75696;SDS011;64312;44.738;20.612;2023-01-28T11:55:23;60.63;;;27.48;;
75696;SDS011;64312;44.738;20.612;2023-01-28T12:00:45;57.75;;;25.35;;
75696;SDS011;64312;44.738;20.612;2023-01-28T12:08:28;61.50;;;25.35;;
75696;SDS011;64312;44.738;20.612;2023-01-28T12:20:14;53.80;;;27.02;;
75696;SDS011;64312;44.738;20.612;2023-01-28T12:23:09;57.28;;;26.30;;
75696;SDS011;64312;44.738;20.612;2023-01-28T12:25:41;71.07;;;26.73;;
75696;SDS011;64312;44.738;20.612;2023-01-28T12:42:33;63.17;;;26.88;;
75696;SDS011;64312;44.738;20.612;2023-01-28T12:45:10;60.53;;;26.63;;
75696;SDS011;64312;44.738;20.612;2023-01-28T12:47:47;56.45;;;23.92;;
75696;SDS011;64312;44.738;20.612;2023-01-28T12:50:23;65.35;;;28.05;;
75696;SDS011;64312;44.738;20.612;2023-01-28T12:52:55;71.25;;;26.45;;
75696;SDS011;64312;44.738;20.612;2023-01-28T12:55:48;64.15;;;27.00;;
75696;SDS011;64312;44.738;20.612;2023-01-28T12:58:16;61.40;;;27.98;;
75696;SDS011;64312;44.738;20.612;2023-01-28T13:00:48;68.93;;;25.80;;
75696;SDS011;64312;44.738;20.612;2023-01-28T13:06:34;71.22;;;27.83;;
75696;SDS011;64312;44.738;20.612;2023-01-28T13:09:17;65.05;;;26.85;;
75696;SDS011;64312;44.738;20.612;2023-01-28T13:11:44;71.70;;;26.52;;
75696;SDS011;64312;44.738;20.612;2023-01-28T13:14:12;72.90;;;29.77;;
75696;SDS011;64312;44.738;20.612;2023-01-28T13:16:39;70.38;;;28.17;;
75696;SDS011;64312;44.738;20.612;2023-01-28T13:21:43;69.50;;;25.85;;
75696;SDS011;64312;44.738;20.612;2023-01-28T13:31:40;72.40;;;26.75;;
75696;SDS011;64312;44.738;20.612;2023-01-28T13:34:24;73.72;;;28.77;;
75696;SDS011;64312;44.738;20.612;2023-01-28T13:36:54;70.88;;;28.40;;
75696;SDS011;64312;44.738;20.612;2023-01-28T13:39:23;65.95;;;26.65;;
75696;SDS011;64312;44.738;20.612;2023-01-28T13:41:52;67.88;;;28.13;;
75696;SDS011;64312;44.738;20.612;2023-01-28T13:44:30;77.78;;;30.17;;
75696;SDS011;64312;44.738;20.612;2023-01-28T13:49:42;72.13;;;28.05;;
75696;SDS011;64312;44.738;20.612;2023-01-28T13:54:42;65.25;;;27.25;;
75696;SDS011;64312;44.738;20.612;2023-01-28T14:02:26;65.47;;;26.75;;
75696;SDS011;64312;44.738;20.612;2023-01-28T14:07:54;67.85;;;25.73;;
75696;SDS011;64312;44.738;20.612;2023-01-28T14:18:17;68.05;;;29.17;;
75696;SDS011;64312;44.738;20.612;2023-01-28T14:20:51;90.40;;;34.70;;
75696;SDS011;64312;44.738;20.612;2023-01-28T14:23:20;84.22;;;33.40;;
75696;SDS011;64312;44.738;20.612;2023-01-28T14:28:37;69.93;;;29.88;;
75696;SDS011;64312;44.738;20.612;2023-01-28T14:31:26;73.63;;;27.92;;
75696;SDS011;64312;44.738;20.612;2023-01-28T14:33:58;75.60;;;32.13;;
75696;SDS011;64312;44.738;20.612;2023-01-28T14:36:34;71.28;;;29.60;;
75696;SDS011;64312;44.738;20.612;2023-01-28T14:39:02;79.30;;;32.97;;
75696;SDS011;64312;44.738;20.612;2023-01-28T14:41:27;87.65;;;33.58;;
75696;SDS011;64312;44.738;20.612;2023-01-28T14:43:54;74.40;;;32.15;;
75696;SDS011;64312;44.738;20.612;2023-01-28T14:46:28;75.15;;;32.15;;
75696;SDS011;64312;44.738;20.612;2023-01-28T14:58:00;55.25;;;24.50;;
75696;SDS011;64312;44.738;20.612;2023-01-28T15:00:33;75.90;;;28.45;;
75696;SDS011;64312;44.738;20.612;2023-01-28T15:02:59;69.32;;;27.70;;
75696;SDS011;64312;44.738;20.612;2023-01-28T15:05:32;68.25;;;29.58;;
75696;SDS011;64312;44.738;20.612;2023-01-28T15:07:58;72.30;;;30.55;;
75696;SDS011;64312;44.738;20.612;2023-01-28T15:15:30;79.18;;;34.78;;
75696;SDS011;64312;44.738;20.612;2023-01-28T15:18:00;79.25;;;33.78;;
75696;SDS011;64312;44.738;20.612;2023-01-28T15:20:28;72.03;;;29.52;;
75696;SDS011;64312;44.738;20.612;2023-01-28T15:22:55;65.10;;;29.08;;
75696;SDS011;64312;44.738;20.612;2023-01-28T15:25:21;61.03;;;27.48;;
75696;SDS011;64312;44.738;20.612;2023-01-28T15:27:48;75.45;;;28.42;;
75696;SDS011;64312;44.738;20.612;2023-01-28T15:30:18;70.07;;;31.08;;
75696;SDS011;64312;44.738;20.612;2023-01-28T15:35:46;65.22;;;26.50;;
75696;SDS011;64312;44.738;20.612;2023-01-28T15:38:13;70.32;;;27.15;;
75696;SDS011;64312;44.738;20.612;2023-01-28T15:40:42;74.90;;;33.13;;
75696;SDS011;64312;44.738;20.612;2023-01-28T15:43:20;73.40;;;33.17;;
75696;SDS011;64312;44.738;20.612;2023-01-28T15:45:50;72.82;;;31.65;;
75696;SDS011;64312;44.738;20.612;2023-01-28T15:48:20;75.20;;;33.47;;
75696;SDS011;64312;44.738;20.612;2023-01-28T15:50:47;79.97;;;35.75;;
75696;SDS011;64312;44.738;20.612;2023-01-28T15:53:21;77.90;;;31.88;;
75696;SDS011;64312;44.738;20.612;2023-01-28T15:55:47;80.25;;;32.83;;
75696;SDS011;64312;44.738;20.612;2023-01-28T15:58:27;79.13;;;33.80;;
75696;SDS011;64312;44.738;20.612;2023-01-28T16:01:28;75.53;;;30.98;;
75696;SDS011;64312;44.738;20.612;2023-01-28T16:04:00;69.60;;;29.13;;
75696;SDS011;64312;44.738;20.612;2023-01-28T16:06:38;64.38;;;29.63;;
75696;SDS011;64312;44.738;20.612;2023-01-28T16:09:22;62.40;;;27.38;;
75696;SDS011;64312;44.738;20.612;2023-01-28T16:11:51;74.40;;;26.92;;
75696;SDS011;64312;44.738;20.612;2023-01-28T16:16:52;67.80;;;28.90;;
75696;SDS011;64312;44.738;20.612;2023-01-28T16:19:24;68.85;;;30.38;;
75696;SDS011;64312;44.738;20.612;2023-01-28T16:21:57;75.85;;;31.55;;
75696;SDS011;64312;44.738;20.612;2023-01-28T16:24:25;72.90;;;29.10;;
75696;SDS011;64312;44.738;20.612;2023-01-28T16:26:56;70.05;;;30.60;;
75696;SDS011;64312;44.738;20.612;2023-01-28T16:29:24;76.65;;;32.08;;
75696;SDS011;64312;44.738;20.612;2023-01-28T16:31:50;75.40;;;31.98;;
75696;SDS011;64312;44.738;20.612;2023-01-28T16:34:16;74.18;;;30.83;;
75696;SDS011;64312;44.738;20.612;2023-01-28T16:36:42;82.68;;;35.08;;
75696;SDS011;64312;44.738;20.612;2023-01-28T16:39:07;80.00;;;33.92;;
75696;SDS011;64312;44.738;20.612;2023-01-28T16:41:34;68.45;;;30.80;;
75696;SDS011;64312;44.738;20.612;2023-01-28T16:44:04;77.72;;;31.80;;
75696;SDS011;64312;44.738;20.612;2023-01-28T16:46:31;84.25;;;36.78;;
75696;SDS011;64312;44.738;20.612;2023-01-28T16:49:00;78.90;;;32.25;;
75696;SDS011;64312;44.738;20.612;2023-01-28T16:51:26;78.63;;;36.85;;
75696;SDS011;64312;44.738;20.612;2023-01-28T16:53:52;87.90;;;33.53;;
75696;SDS011;64312;44.738;20.612;2023-01-28T16:56:22;84.13;;;32.75;;
75696;SDS011;64312;44.738;20.612;2023-01-28T16:58:50;89.30;;;39.33;;
75696;SDS011;64312;44.738;20.612;2023-01-28T17:01:16;68.80;;;32.08;;
75696;SDS011;64312;44.738;20.612;2023-01-28T17:03:41;88.25;;;34.50;;
75696;SDS011;64312;44.738;20.612;2023-01-28T17:06:07;74.25;;;32.80;;
75696;SDS011;64312;44.738;20.612;2023-01-28T17:08:38;78.88;;;32.83;;